createdAt,value
2018-03-07T00:00:01.163Z,972.8
2018-03-07T00:01:02.621Z,972.8
2018-03-07T00:02:04.166Z,972.9
2018-03-07T00:03:05.676Z,972.8
2018-03-07T00:04:07.122Z,972.8
2018-03-07T00:05:08.591Z,972.8
2018-03-07T00:06:10.184Z,972.8
2018-03-07T00:07:11.623Z,972.8
2018-03-07T00:08:13.043Z,972.8
2018-03-07T00:09:14.504Z,972.8
2018-03-07T00:10:15.894Z,972.8
2018-03-07T00:11:17.354Z,972.8
2018-03-07T00:12:18.773Z,972.8
2018-03-07T00:13:20.182Z,972.9
2018-03-07T00:14:21.592Z,972.8
2018-03-07T00:15:22.993Z,972.8
2018-03-07T00:16:24.455Z,972.8
2018-03-07T00:17:26.034Z,972.9
2018-03-07T00:18:27.511Z,972.9
2018-03-07T00:19:29.004Z,972.8
2018-03-07T00:20:30.489Z,972.8
2018-03-07T00:21:32.113Z,972.9
2018-03-07T00:22:33.534Z,972.9
2018-03-07T00:23:35.033Z,972.9
2018-03-07T00:24:36.544Z,972.9
2018-03-07T00:25:38.017Z,972.9
2018-03-07T00:26:39.550Z,972.8
2018-03-07T00:27:41.002Z,972.9
2018-03-07T00:28:42.536Z,972.9
2018-03-07T00:29:44.019Z,972.8
2018-03-07T00:30:45.627Z,972.8
2018-03-07T00:31:47.287Z,972.9
2018-03-07T00:32:48.766Z,972.8
2018-03-07T00:33:50.335Z,972.8
2018-03-07T00:34:51.790Z,972.8
2018-03-07T00:35:53.292Z,972.8
2018-03-07T00:36:54.794Z,972.8
2018-03-07T00:37:56.256Z,972.8
2018-03-07T00:38:57.805Z,972.8
2018-03-07T00:39:59.276Z,972.7
2018-03-07T00:41:01.061Z,972.8
2018-03-07T00:42:02.597Z,972.8
2018-03-07T00:43:04.101Z,972.8
2018-03-07T00:44:05.616Z,972.9
2018-03-07T00:45:07.103Z,972.9
2018-03-07T00:46:08.600Z,972.8
2018-03-07T00:47:10.141Z,972.8
2018-03-07T00:48:11.639Z,972.8
2018-03-07T00:49:13.661Z,972.8
2018-03-07T00:50:16.060Z,972.8
2018-03-07T00:51:17.576Z,972.8
2018-03-07T00:52:19.553Z,972.8
2018-03-07T00:53:21.032Z,972.8
2018-03-07T00:54:22.593Z,972.8
2018-03-07T00:55:24.057Z,972.9
2018-03-07T00:56:25.543Z,972.9
2018-03-07T00:57:27.040Z,972.9
2018-03-07T00:58:28.536Z,972.8
2018-03-07T00:59:30.050Z,972.8
2018-03-07T01:00:31.586Z,972.8
2018-03-07T01:01:33.114Z,972.8
2018-03-07T01:02:34.888Z,972.8
2018-03-07T01:03:36.914Z,972.8
2018-03-07T01:04:38.558Z,972.8
2018-03-07T01:05:40.061Z,972.7
2018-03-07T01:06:41.560Z,972.7
2018-03-07T01:07:43.092Z,972.8
2018-03-07T01:08:44.595Z,972.8
2018-03-07T01:09:46.108Z,972.8
2018-03-07T01:10:47.644Z,972.9
2018-03-07T01:11:49.136Z,972.8
2018-03-07T01:12:50.646Z,972.8
2018-03-07T01:13:52.141Z,972.9
2018-03-07T01:14:53.637Z,973.0
2018-03-07T01:15:55.124Z,972.9
2018-03-07T01:16:56.581Z,972.9
2018-03-07T01:17:58.090Z,973.0
2018-03-07T01:18:59.602Z,973.0
2018-03-07T01:20:01.092Z,973.0
2018-03-07T01:21:02.610Z,973.0
2018-03-07T01:22:04.105Z,973.0
2018-03-07T01:23:05.612Z,972.9
2018-03-07T01:24:07.178Z,973.0
2018-03-07T01:25:08.585Z,972.9
2018-03-07T01:26:09.981Z,972.9
2018-03-07T01:27:11.375Z,972.9
2018-03-07T01:28:12.767Z,972.9
2018-03-07T01:29:14.164Z,972.8
2018-03-07T01:30:15.561Z,972.8
2018-03-07T01:31:16.952Z,972.8
2018-03-07T01:32:18.354Z,972.8
2018-03-07T01:33:19.742Z,972.8
2018-03-07T01:34:21.133Z,972.9
2018-03-07T01:35:22.524Z,972.9
2018-03-07T01:36:23.922Z,972.9
2018-03-07T01:37:25.312Z,972.9
2018-03-07T01:38:26.707Z,972.9
2018-03-07T01:39:28.130Z,972.9
2018-03-07T01:40:29.501Z,972.9
2018-03-07T01:41:30.896Z,972.9
2018-03-07T01:42:32.291Z,972.8
2018-03-07T01:43:33.683Z,972.8
2018-03-07T01:44:35.072Z,972.8
2018-03-07T01:45:36.467Z,972.8
2018-03-07T01:46:37.856Z,972.8
2018-03-07T01:47:39.252Z,972.8
2018-03-07T01:48:40.643Z,972.8
2018-03-07T01:49:42.035Z,972.7
2018-03-07T01:50:43.431Z,972.7
2018-03-07T01:51:44.828Z,972.7
2018-03-07T01:52:46.220Z,972.8
2018-03-07T01:53:47.618Z,972.7
2018-03-07T01:54:49.008Z,972.8
2018-03-07T01:55:50.405Z,972.7
2018-03-07T01:56:51.817Z,972.8
2018-03-07T01:57:53.216Z,972.7
2018-03-07T01:58:54.627Z,972.7
2018-03-07T01:59:56.264Z,972.7
2018-03-07T02:00:57.708Z,972.7
2018-03-07T02:01:59.098Z,972.7
2018-03-07T02:03:00.487Z,972.7
2018-03-07T02:04:01.885Z,972.8
2018-03-07T02:05:03.298Z,972.8
2018-03-07T02:06:04.698Z,972.8
2018-03-07T02:07:06.088Z,972.8
2018-03-07T02:08:07.546Z,972.8
2018-03-07T02:09:08.885Z,972.8
2018-03-07T02:10:10.284Z,972.8
2018-03-07T02:11:11.681Z,972.9
2018-03-07T02:12:13.074Z,972.8
2018-03-07T02:13:14.498Z,972.8
2018-03-07T02:14:15.894Z,972.8
2018-03-07T02:15:17.308Z,972.8
2018-03-07T02:16:18.720Z,972.8
2018-03-07T02:17:20.121Z,972.8
2018-03-07T02:18:21.536Z,972.8
2018-03-07T02:19:22.934Z,972.8
2018-03-07T02:20:24.329Z,972.8
2018-03-07T02:21:25.799Z,972.7
2018-03-07T02:22:27.205Z,972.7
2018-03-07T02:23:28.604Z,972.7
2018-03-07T02:24:30.025Z,972.7
2018-03-07T02:25:31.416Z,972.7
2018-03-07T02:26:32.851Z,972.7
2018-03-07T02:27:34.262Z,972.7
2018-03-07T02:28:35.656Z,972.7
2018-03-07T02:29:37.147Z,972.8
2018-03-07T02:30:38.528Z,972.7
2018-03-07T02:31:39.930Z,972.7
2018-03-07T02:32:41.351Z,972.7
2018-03-07T02:33:42.736Z,972.6
2018-03-07T02:34:44.141Z,972.7
2018-03-07T02:35:45.573Z,972.6
2018-03-07T02:36:46.989Z,972.6
2018-03-07T02:37:48.380Z,972.6
2018-03-07T02:38:49.793Z,972.6
2018-03-07T02:39:51.189Z,972.5
2018-03-07T02:40:52.619Z,972.5
2018-03-07T02:41:54.037Z,972.5
2018-03-07T02:42:55.433Z,972.5
2018-03-07T02:43:56.863Z,972.5
2018-03-07T02:44:58.293Z,972.6
2018-03-07T02:45:59.742Z,972.6
2018-03-07T02:47:01.188Z,972.5
2018-03-07T02:48:02.607Z,972.5
2018-03-07T02:49:04.032Z,972.5
2018-03-07T02:50:05.463Z,972.5
2018-03-07T02:51:06.887Z,972.5
2018-03-07T02:52:08.294Z,972.6
2018-03-07T02:53:09.730Z,972.6
2018-03-07T02:54:11.205Z,972.5
2018-03-07T02:55:12.611Z,972.5
2018-03-07T02:56:14.037Z,972.6
2018-03-07T02:57:15.448Z,972.6
2018-03-07T02:58:16.875Z,972.6
2018-03-07T02:59:18.272Z,972.6
2018-03-07T03:00:19.696Z,972.6
2018-03-07T03:01:21.091Z,972.6
2018-03-07T03:02:22.496Z,972.5
2018-03-07T03:03:23.896Z,972.6
2018-03-07T03:04:25.329Z,972.6
2018-03-07T03:05:26.691Z,972.6
2018-03-07T03:06:28.092Z,972.6
2018-03-07T03:07:29.483Z,972.6
2018-03-07T03:08:30.875Z,972.6
2018-03-07T03:09:32.273Z,972.6
2018-03-07T03:10:33.674Z,972.6
2018-03-07T03:11:35.072Z,972.6
2018-03-07T03:12:36.461Z,972.6
2018-03-07T03:13:37.863Z,972.6
2018-03-07T03:14:39.283Z,972.6
2018-03-07T03:15:40.675Z,972.6
2018-03-07T03:16:42.066Z,972.6
2018-03-07T03:17:44.360Z,972.6
2018-03-07T03:18:45.751Z,972.6
2018-03-07T03:19:47.166Z,972.6
2018-03-07T03:20:48.556Z,972.6
2018-03-07T03:21:49.951Z,972.6
2018-03-07T03:22:51.338Z,972.6
2018-03-07T03:23:52.727Z,972.6
2018-03-07T03:24:54.119Z,972.6
2018-03-07T03:25:55.518Z,972.6
2018-03-07T03:26:56.905Z,972.5
2018-03-07T03:27:58.318Z,972.5
2018-03-07T03:28:59.720Z,972.5
2018-03-07T03:30:01.114Z,972.6
2018-03-07T03:31:02.520Z,972.5
2018-03-07T03:32:03.913Z,972.5
2018-03-07T03:33:05.304Z,972.6
2018-03-07T03:34:06.694Z,972.5
2018-03-07T03:35:08.083Z,972.5
2018-03-07T03:36:09.476Z,972.6
2018-03-07T03:37:10.867Z,972.6
2018-03-07T03:38:12.263Z,972.5
2018-03-07T03:39:13.666Z,972.5
2018-03-07T03:40:15.059Z,972.5
2018-03-07T03:41:16.458Z,972.6
2018-03-07T03:42:17.853Z,972.6
2018-03-07T03:43:19.252Z,972.6
2018-03-07T03:44:20.641Z,972.6
2018-03-07T03:45:22.034Z,972.6
2018-03-07T03:46:23.427Z,972.6
2018-03-07T03:47:24.817Z,972.6
2018-03-07T03:48:26.206Z,972.6
2018-03-07T03:49:27.595Z,972.7
2018-03-07T03:50:28.985Z,972.6
2018-03-07T03:51:30.388Z,972.7
2018-03-07T03:52:31.779Z,972.7
2018-03-07T03:53:33.173Z,972.7
2018-03-07T03:54:34.572Z,972.8
2018-03-07T03:55:35.955Z,972.8
2018-03-07T03:56:37.358Z,972.8
2018-03-07T03:57:38.735Z,972.8
2018-03-07T03:58:40.137Z,972.8
2018-03-07T03:59:41.527Z,972.8
2018-03-07T04:00:42.914Z,972.8
2018-03-07T04:01:44.310Z,972.8
2018-03-07T04:02:45.701Z,972.8
2018-03-07T04:03:47.090Z,972.8
2018-03-07T04:04:48.492Z,972.8
2018-03-07T04:05:49.898Z,972.8
2018-03-07T04:06:51.292Z,972.8
2018-03-07T04:07:52.686Z,972.8
2018-03-07T04:08:54.070Z,972.8
2018-03-07T04:09:55.471Z,972.8
2018-03-07T04:10:56.853Z,972.8
2018-03-07T04:11:58.248Z,972.8
2018-03-07T04:12:59.633Z,972.8
2018-03-07T04:14:01.034Z,972.8
2018-03-07T04:15:02.419Z,972.8
2018-03-07T04:16:03.811Z,972.8
2018-03-07T04:17:05.206Z,972.8
2018-03-07T04:18:06.598Z,972.8
2018-03-07T04:19:07.986Z,972.8
2018-03-07T04:20:09.386Z,972.8
2018-03-07T04:21:10.861Z,972.8
2018-03-07T04:22:12.254Z,972.8
2018-03-07T04:23:13.653Z,972.8
2018-03-07T04:24:15.040Z,972.8
2018-03-07T04:25:16.438Z,972.8
2018-03-07T04:26:17.835Z,972.8
2018-03-07T04:27:19.256Z,972.8
2018-03-07T04:28:20.637Z,972.8
2018-03-07T04:29:22.037Z,972.8
2018-03-07T04:30:24.395Z,972.8
2018-03-07T04:31:25.792Z,972.8
2018-03-07T04:32:27.188Z,972.8
2018-03-07T04:33:28.586Z,972.8
2018-03-07T04:34:29.999Z,972.9
2018-03-07T04:35:31.416Z,972.9
2018-03-07T04:36:32.807Z,972.8
2018-03-07T04:37:34.208Z,972.8
2018-03-07T04:38:35.597Z,972.8
2018-03-07T04:39:36.987Z,972.8
2018-03-07T04:40:38.426Z,972.8
2018-03-07T04:41:39.771Z,972.8
2018-03-07T04:42:41.164Z,972.8
2018-03-07T04:43:42.556Z,972.8
2018-03-07T04:44:43.946Z,972.8
2018-03-07T04:45:45.372Z,972.8
2018-03-07T04:46:46.775Z,972.8
2018-03-07T04:47:48.172Z,972.8
2018-03-07T04:48:49.565Z,972.9
2018-03-07T04:49:50.983Z,972.9
2018-03-07T04:50:52.393Z,972.9
2018-03-07T04:51:53.767Z,972.9
2018-03-07T04:52:55.165Z,972.9
2018-03-07T04:53:56.549Z,972.9
2018-03-07T04:54:57.946Z,972.9
2018-03-07T04:55:59.657Z,972.9
2018-03-07T04:57:01.059Z,972.9
2018-03-07T04:58:02.456Z,972.9
2018-03-07T04:59:03.844Z,972.9
2018-03-07T05:00:05.240Z,972.9
2018-03-07T05:01:06.623Z,972.9
2018-03-07T05:02:08.035Z,972.9
2018-03-07T05:03:09.439Z,972.9
2018-03-07T05:04:10.828Z,972.9
2018-03-07T05:05:12.225Z,972.9
2018-03-07T05:06:13.612Z,972.9
2018-03-07T05:07:15.008Z,972.9
2018-03-07T05:08:16.399Z,972.9
2018-03-07T05:09:17.788Z,973.0
2018-03-07T05:10:19.195Z,972.9
2018-03-07T05:11:20.607Z,972.9
2018-03-07T05:12:22.003Z,972.9
2018-03-07T05:13:23.401Z,972.9
2018-03-07T05:14:24.813Z,972.9
2018-03-07T05:15:26.180Z,973.0
2018-03-07T05:16:27.574Z,972.9
2018-03-07T05:17:28.968Z,972.9
2018-03-07T05:18:30.357Z,972.9
2018-03-07T05:19:31.752Z,973.0
2018-03-07T05:20:33.153Z,972.9
2018-03-07T05:21:34.533Z,972.9
2018-03-07T05:22:35.925Z,972.9
2018-03-07T05:23:38.223Z,973.0
2018-03-07T05:24:39.620Z,972.9
2018-03-07T05:25:41.104Z,972.9
2018-03-07T05:26:42.598Z,972.9
2018-03-07T05:27:44.067Z,972.9
2018-03-07T05:28:45.541Z,973.0
2018-03-07T05:29:46.998Z,972.9
2018-03-07T05:30:48.464Z,973.0
2018-03-07T05:31:49.897Z,972.9
2018-03-07T05:32:51.344Z,972.9
2018-03-07T05:33:52.767Z,973.0
2018-03-07T05:34:54.165Z,972.9
2018-03-07T05:35:55.663Z,973.0
2018-03-07T05:36:57.145Z,973.0
2018-03-07T05:37:58.681Z,972.9
2018-03-07T05:39:00.082Z,972.9
2018-03-07T05:40:01.571Z,972.9
2018-03-07T05:41:03.012Z,972.9
2018-03-07T05:42:04.498Z,972.9
2018-03-07T05:43:06.781Z,972.9
2018-03-07T05:44:08.262Z,972.9
2018-03-07T05:45:09.697Z,972.9
2018-03-07T05:46:11.160Z,973.0
2018-03-07T05:47:12.639Z,973.0
2018-03-07T05:48:14.065Z,973.0
2018-03-07T05:49:15.530Z,973.0
2018-03-07T05:50:16.959Z,972.9
2018-03-07T05:51:18.361Z,973.0
2018-03-07T05:52:19.791Z,973.0
2018-03-07T05:53:21.324Z,973.0
2018-03-07T05:54:22.704Z,973.0
2018-03-07T05:55:25.283Z,973.0
2018-03-07T05:56:26.056Z,973.0
2018-03-07T05:57:27.440Z,973.0
2018-03-07T05:58:29.041Z,973.0
2018-03-07T05:59:30.433Z,973.0
2018-03-07T06:00:31.927Z,973.0
2018-03-07T06:01:33.391Z,973.0
2018-03-07T06:02:34.823Z,973.0
2018-03-07T06:03:36.596Z,973.0
2018-03-07T06:04:37.995Z,973.0
2018-03-07T06:05:39.431Z,973.1
2018-03-07T06:06:40.950Z,973.0
2018-03-07T06:07:42.409Z,973.1
2018-03-07T06:08:43.844Z,973.1
2018-03-07T06:09:45.298Z,973.1
2018-03-07T06:10:46.807Z,973.1
2018-03-07T06:11:48.218Z,973.1
2018-03-07T06:12:49.679Z,973.1
2018-03-07T06:13:51.307Z,973.1
2018-03-07T06:14:52.745Z,973.1
2018-03-07T06:15:54.155Z,973.1
2018-03-07T06:16:55.697Z,973.2
2018-03-07T06:17:57.346Z,973.2
2018-03-07T06:18:58.901Z,973.2
2018-03-07T06:20:00.304Z,973.2
2018-03-07T06:21:01.850Z,973.2
2018-03-07T06:22:03.525Z,973.2
2018-03-07T06:23:04.996Z,973.2
2018-03-07T06:24:06.481Z,973.2
2018-03-07T06:25:07.940Z,973.2
2018-03-07T06:26:09.380Z,973.3
2018-03-07T06:27:10.831Z,973.3
2018-03-07T06:28:12.302Z,973.3
2018-03-07T06:29:13.763Z,973.3
2018-03-07T06:30:15.185Z,973.3
2018-03-07T06:31:16.754Z,973.3
2018-03-07T06:32:18.218Z,973.3
2018-03-07T06:33:19.764Z,973.3
2018-03-07T06:34:21.178Z,973.4
2018-03-07T06:35:22.649Z,973.4
2018-03-07T06:36:24.234Z,973.4
2018-03-07T06:37:25.638Z,973.4
2018-03-07T06:38:27.785Z,973.4
2018-03-07T06:39:29.208Z,973.4
2018-03-07T06:40:30.689Z,973.4
2018-03-07T06:41:32.170Z,973.4
2018-03-07T06:42:33.565Z,973.4
2018-03-07T06:43:34.966Z,973.5
2018-03-07T06:44:36.615Z,973.4
2018-03-07T06:45:38.065Z,973.4
2018-03-07T06:46:39.540Z,973.4
2018-03-07T06:47:41.168Z,973.4
2018-03-07T06:48:42.666Z,973.5
2018-03-07T06:49:44.053Z,973.4
2018-03-07T06:50:45.546Z,973.4
2018-03-07T06:51:46.982Z,973.5
2018-03-07T06:52:48.387Z,973.5
2018-03-07T06:53:49.840Z,973.5
2018-03-07T06:54:51.230Z,973.5
2018-03-07T06:55:52.631Z,973.5
2018-03-07T06:56:54.163Z,973.5
2018-03-07T06:57:55.652Z,973.5
2018-03-07T06:58:57.073Z,973.5
2018-03-07T06:59:58.574Z,973.6
2018-03-07T07:01:00.001Z,973.6
2018-03-07T07:02:01.396Z,973.6
2018-03-07T07:03:02.793Z,973.6
2018-03-07T07:04:04.196Z,973.6
2018-03-07T07:05:05.599Z,973.6
2018-03-07T07:06:06.995Z,973.6
2018-03-07T07:07:08.447Z,973.6
2018-03-07T07:08:09.848Z,973.6
2018-03-07T07:09:11.249Z,973.6
2018-03-07T07:10:12.656Z,973.6
2018-03-07T07:11:14.066Z,973.7
2018-03-07T07:12:15.492Z,973.6
2018-03-07T07:13:17.106Z,973.7
2018-03-07T07:14:18.704Z,973.6
2018-03-07T07:15:20.171Z,973.7
2018-03-07T07:16:21.550Z,973.7
2018-03-07T07:17:22.951Z,973.7
2018-03-07T07:18:24.352Z,973.8
2018-03-07T07:19:25.747Z,973.8
2018-03-07T07:20:27.150Z,973.7
2018-03-07T07:21:28.592Z,973.7
2018-03-07T07:22:29.995Z,973.7
2018-03-07T07:23:32.177Z,973.7
2018-03-07T07:24:33.532Z,973.7
2018-03-07T07:25:35.158Z,973.8
2018-03-07T07:26:36.558Z,973.8
2018-03-07T07:27:37.961Z,973.8
2018-03-07T07:28:39.491Z,973.8
2018-03-07T07:29:40.972Z,973.8
2018-03-07T07:30:42.448Z,973.8
2018-03-07T07:31:43.840Z,973.8
2018-03-07T07:32:45.235Z,973.8
2018-03-07T07:33:46.633Z,973.8
2018-03-07T07:34:48.036Z,973.8
2018-03-07T07:35:49.450Z,973.8
2018-03-07T07:36:50.850Z,973.9
2018-03-07T07:37:52.283Z,973.9
2018-03-07T07:38:53.682Z,973.9
2018-03-07T07:39:55.084Z,973.9
2018-03-07T07:40:56.678Z,973.9
2018-03-07T07:41:58.098Z,973.9
2018-03-07T07:42:59.531Z,973.9
2018-03-07T07:44:00.980Z,973.9
2018-03-07T07:45:02.381Z,973.9
2018-03-07T07:46:03.841Z,974.0
2018-03-07T07:47:05.268Z,973.9
2018-03-07T07:48:06.723Z,973.9
2018-03-07T07:49:08.286Z,973.9
2018-03-07T07:50:09.711Z,974.0
2018-03-07T07:51:11.534Z,973.9
2018-03-07T07:52:12.989Z,974.0
2018-03-07T07:53:14.373Z,974.0
2018-03-07T07:54:15.949Z,974.0
2018-03-07T07:55:17.351Z,974.1
2018-03-07T07:56:18.753Z,974.1
2018-03-07T07:57:20.176Z,974.1
2018-03-07T07:58:21.567Z,974.1
2018-03-07T07:59:22.987Z,974.1
2018-03-07T08:00:24.392Z,974.1
2018-03-07T08:01:25.783Z,974.1
2018-03-07T08:02:27.180Z,974.2
2018-03-07T08:03:28.584Z,974.2
2018-03-07T08:04:29.987Z,974.2
2018-03-07T08:05:31.382Z,974.2
2018-03-07T08:06:32.780Z,974.2
2018-03-07T08:07:34.181Z,974.2
2018-03-07T08:08:35.580Z,974.2
2018-03-07T08:09:36.997Z,974.2
2018-03-07T08:10:38.418Z,974.2
2018-03-07T08:11:39.860Z,974.2
2018-03-07T08:12:41.285Z,974.2
2018-03-07T08:13:42.697Z,974.2
2018-03-07T08:14:44.146Z,974.2
2018-03-07T08:15:45.534Z,974.3
2018-03-07T08:16:47.042Z,974.2
2018-03-07T08:17:48.439Z,974.3
2018-03-07T08:18:49.844Z,974.3
2018-03-07T08:19:51.357Z,974.3
2018-03-07T08:20:52.764Z,974.3
2018-03-07T08:21:54.166Z,974.3
2018-03-07T08:22:55.586Z,974.3
2018-03-07T08:23:57.126Z,974.3
2018-03-07T08:24:58.553Z,974.3
2018-03-07T08:25:59.936Z,974.4
2018-03-07T08:27:01.338Z,974.4
2018-03-07T08:28:02.759Z,974.4
2018-03-07T08:29:04.236Z,974.4
2018-03-07T08:30:05.626Z,974.4
2018-03-07T08:31:07.031Z,974.4
2018-03-07T08:32:08.485Z,974.4
2018-03-07T08:33:09.915Z,974.5
2018-03-07T08:34:11.330Z,974.5
2018-03-07T08:35:12.793Z,974.5
2018-03-07T08:36:14.219Z,974.5
2018-03-07T08:37:15.626Z,974.5
2018-03-07T08:38:17.095Z,974.5
2018-03-07T08:39:18.814Z,974.6
2018-03-07T08:40:20.391Z,974.6
2018-03-07T08:41:21.844Z,974.6
2018-03-07T08:42:23.264Z,974.6
2018-03-07T08:43:24.658Z,974.6
2018-03-07T08:44:26.096Z,974.6
2018-03-07T08:45:27.492Z,974.6
2018-03-07T08:46:28.893Z,974.6
2018-03-07T08:47:30.309Z,974.7
2018-03-07T08:48:31.723Z,974.6
2018-03-07T08:49:33.121Z,974.6
2018-03-07T08:50:34.519Z,974.6
2018-03-07T08:51:35.941Z,974.6
2018-03-07T08:52:37.371Z,974.6
2018-03-07T08:53:38.826Z,974.6
2018-03-07T08:54:40.245Z,974.6
2018-03-07T08:55:41.636Z,974.6
2018-03-07T08:56:43.089Z,974.6
2018-03-07T08:57:44.526Z,974.5
2018-03-07T08:58:45.962Z,974.5
2018-03-07T08:59:47.353Z,974.6
2018-03-07T09:00:48.766Z,974.6
2018-03-07T09:01:50.171Z,974.6
2018-03-07T09:02:51.582Z,974.7
2018-03-07T09:03:53.896Z,974.7
2018-03-07T09:04:55.320Z,974.7
2018-03-07T09:05:56.717Z,974.7
2018-03-07T09:06:58.113Z,974.7
2018-03-07T09:07:59.506Z,974.7
2018-03-07T09:09:00.908Z,974.7
2018-03-07T09:10:02.311Z,974.7
2018-03-07T09:11:03.722Z,974.7
2018-03-07T09:12:05.170Z,974.7
2018-03-07T09:13:06.593Z,974.7
2018-03-07T09:14:07.990Z,974.7
2018-03-07T09:15:09.387Z,974.7
2018-03-07T09:16:10.792Z,974.7
2018-03-07T09:17:12.258Z,974.8
2018-03-07T09:18:13.655Z,974.7
2018-03-07T09:19:15.089Z,974.7
2018-03-07T09:20:16.501Z,974.7
2018-03-07T09:21:17.922Z,974.8
2018-03-07T09:22:19.382Z,974.8
2018-03-07T09:23:20.869Z,974.8
2018-03-07T09:24:22.278Z,974.8
2018-03-07T09:25:23.696Z,974.8
2018-03-07T09:26:25.107Z,974.8
2018-03-07T09:27:26.506Z,974.8
2018-03-07T09:28:27.909Z,974.8
2018-03-07T09:29:29.348Z,974.8
2018-03-07T09:30:30.738Z,974.9
2018-03-07T09:31:32.173Z,974.9
2018-03-07T09:32:33.580Z,974.9
2018-03-07T09:33:35.005Z,974.8
2018-03-07T09:34:36.392Z,974.9
2018-03-07T09:35:37.796Z,974.9
2018-03-07T09:36:39.216Z,974.9
2018-03-07T09:37:40.614Z,974.9
2018-03-07T09:38:42.106Z,974.9
2018-03-07T09:39:43.475Z,974.9
2018-03-07T09:40:44.867Z,974.9
2018-03-07T09:41:46.288Z,975.0
2018-03-07T09:42:47.706Z,975.0
2018-03-07T09:43:49.104Z,975.1
2018-03-07T09:44:50.548Z,975.0
2018-03-07T09:45:51.975Z,975.1
2018-03-07T09:46:53.380Z,975.1
2018-03-07T09:47:54.782Z,975.1
2018-03-07T09:48:56.199Z,975.1
2018-03-07T09:49:57.661Z,975.1
2018-03-07T09:50:59.119Z,975.1
2018-03-07T09:52:00.573Z,975.2
2018-03-07T09:53:02.068Z,975.1
2018-03-07T09:54:03.509Z,975.1
2018-03-07T09:55:04.947Z,975.2
2018-03-07T09:56:06.443Z,975.2
2018-03-07T09:57:07.735Z,975.2
2018-03-07T09:58:09.141Z,975.2
2018-03-07T09:59:10.649Z,975.2
2018-03-07T10:00:12.059Z,975.2
2018-03-07T10:01:13.457Z,975.1
2018-03-07T10:02:14.888Z,975.2
2018-03-07T10:03:16.390Z,975.1
2018-03-07T10:04:17.834Z,975.2
2018-03-07T10:05:19.251Z,975.1
2018-03-07T10:06:20.660Z,975.2
2018-03-07T10:07:22.061Z,975.2
2018-03-07T10:08:23.476Z,975.1
2018-03-07T10:09:24.898Z,975.2
2018-03-07T10:10:26.351Z,975.1
2018-03-07T10:11:27.754Z,975.2
2018-03-07T10:12:29.187Z,975.2
2018-03-07T10:13:30.598Z,975.1
2018-03-07T10:14:32.048Z,975.2
2018-03-07T10:15:33.467Z,975.2
2018-03-07T10:16:34.919Z,975.2
2018-03-07T10:17:36.260Z,975.2
2018-03-07T10:18:37.672Z,975.2
2018-03-07T10:19:39.165Z,975.2
2018-03-07T10:20:40.607Z,975.2
2018-03-07T10:21:41.992Z,975.2
2018-03-07T10:22:43.408Z,975.2
2018-03-07T10:23:44.833Z,975.2
2018-03-07T10:24:46.255Z,975.2
2018-03-07T10:25:47.671Z,975.3
2018-03-07T10:26:49.077Z,975.3
2018-03-07T10:27:50.553Z,975.3
2018-03-07T10:28:51.988Z,975.4
2018-03-07T10:29:53.684Z,975.3
2018-03-07T10:30:55.172Z,975.3
2018-03-07T10:31:57.378Z,975.2
2018-03-07T10:32:58.879Z,975.2
2018-03-07T10:34:00.256Z,975.2
2018-03-07T10:35:01.889Z,975.3
2018-03-07T10:36:03.299Z,975.4
2018-03-07T10:37:05.199Z,975.3
2018-03-07T10:38:06.935Z,975.3
2018-03-07T10:39:08.332Z,975.3
2018-03-07T10:40:09.762Z,975.4
2018-03-07T10:41:11.221Z,975.3
2018-03-07T10:42:12.626Z,975.3
2018-03-07T10:43:14.022Z,975.3
2018-03-07T10:44:15.453Z,975.3
2018-03-07T10:45:17.150Z,975.3
2018-03-07T10:46:18.607Z,975.4
2018-03-07T10:47:20.050Z,975.4
2018-03-07T10:48:21.508Z,975.7
2018-03-07T10:49:22.967Z,975.7
2018-03-07T10:50:24.568Z,975.7
2018-03-07T10:51:26.036Z,975.9
2018-03-07T10:52:27.667Z,975.9
2018-03-07T10:53:29.323Z,975.9
2018-03-07T10:54:30.859Z,975.8
2018-03-07T10:55:32.288Z,975.7
2018-03-07T10:56:33.712Z,975.9
2018-03-07T10:57:35.259Z,976.0
2018-03-07T10:58:36.792Z,976.1
2018-03-07T10:59:38.320Z,976.1
2018-03-07T11:00:39.616Z,975.9
2018-03-07T11:01:41.031Z,975.8
2018-03-07T11:02:42.533Z,975.8
2018-03-07T11:03:43.959Z,975.9
2018-03-07T11:04:45.349Z,976.1
2018-03-07T11:05:47.043Z,975.9
2018-03-07T11:06:49.493Z,975.6
2018-03-07T11:07:50.969Z,976.1
2018-03-07T11:08:52.399Z,975.6
2018-03-07T11:09:53.828Z,975.6
2018-03-07T11:10:55.273Z,975.9
2018-03-07T11:11:56.712Z,976.2
2018-03-07T11:12:58.219Z,976.2
2018-03-07T11:13:59.711Z,976.3
2018-03-07T11:15:01.174Z,975.7
2018-03-07T11:16:02.717Z,976.4
2018-03-07T11:17:04.176Z,976.4
2018-03-07T11:18:05.611Z,976.3
2018-03-07T11:19:07.088Z,976.4
2018-03-07T11:20:08.449Z,976.3
2018-03-07T11:21:09.951Z,976.3
2018-03-07T11:22:11.529Z,976.3
2018-03-07T11:23:12.888Z,976.4
2018-03-07T11:24:14.358Z,976.4
2018-03-07T11:25:15.785Z,976.4
2018-03-07T11:26:17.237Z,976.2
2018-03-07T11:27:18.730Z,976.3
2018-03-07T11:28:20.175Z,976.4
2018-03-07T11:29:21.667Z,976.4
2018-03-07T11:30:23.154Z,976.4
2018-03-07T11:31:24.667Z,976.3
2018-03-07T11:32:26.411Z,976.3
2018-03-07T11:33:27.885Z,976.3
2018-03-07T11:34:29.303Z,976.0
2018-03-07T11:35:30.808Z,975.9
2018-03-07T11:36:32.268Z,976.0
2018-03-07T11:37:34.828Z,975.7
2018-03-07T11:38:36.079Z,975.7
2018-03-07T11:39:37.529Z,975.6
2018-03-07T11:40:38.980Z,975.8
2018-03-07T11:41:40.410Z,975.8
2018-03-07T11:42:41.847Z,975.7
2018-03-07T11:43:43.318Z,975.8
2018-03-07T11:44:44.729Z,976.0
2018-03-07T11:45:46.156Z,975.9
2018-03-07T11:46:47.599Z,976.0
2018-03-07T11:47:50.687Z,975.8
2018-03-07T11:48:52.238Z,975.7
2018-03-07T11:49:53.887Z,975.7
2018-03-07T11:50:58.867Z,975.7
2018-03-07T11:52:00.683Z,975.6
2018-03-07T11:53:02.096Z,975.6
2018-03-07T11:54:03.498Z,975.7
2018-03-07T11:55:04.952Z,975.7
2018-03-07T11:56:06.388Z,975.6
2018-03-07T11:57:07.782Z,975.6
2018-03-07T11:58:09.545Z,975.9
2018-03-07T11:59:10.975Z,976.0
2018-03-07T12:00:12.511Z,975.9
2018-03-07T12:01:13.908Z,976.0
2018-03-07T12:02:15.335Z,975.9
2018-03-07T12:03:16.741Z,975.9
2018-03-07T12:04:18.151Z,976.0
2018-03-07T12:05:20.122Z,976.0
2018-03-07T12:06:21.550Z,975.9
2018-03-07T12:07:23.005Z,976.0
2018-03-07T12:08:24.463Z,976.0
2018-03-07T12:09:25.860Z,975.7
2018-03-07T12:10:27.327Z,975.6
2018-03-07T12:11:28.721Z,975.6
2018-03-07T12:12:30.134Z,975.7
2018-03-07T12:13:31.620Z,975.7
2018-03-07T12:14:33.104Z,975.7
2018-03-07T12:15:34.559Z,975.7
2018-03-07T12:16:35.983Z,975.9
2018-03-07T12:17:37.442Z,975.9
2018-03-07T12:18:38.833Z,976.0
2018-03-07T12:19:40.259Z,975.7
2018-03-07T12:20:41.689Z,975.9
2018-03-07T12:21:43.283Z,975.6
2018-03-07T12:22:44.699Z,975.6
2018-03-07T12:23:46.147Z,975.9
2018-03-07T12:24:47.566Z,976.0
2018-03-07T12:25:48.986Z,976.2
2018-03-07T12:26:50.399Z,975.9
2018-03-07T12:27:51.809Z,976.1
2018-03-07T12:28:53.228Z,976.1
2018-03-07T12:29:54.710Z,976.0
2018-03-07T12:30:56.131Z,976.3
2018-03-07T12:31:57.542Z,975.8
2018-03-07T12:32:58.971Z,976.3
2018-03-07T12:34:00.474Z,976.2
2018-03-07T12:35:01.899Z,976.2
2018-03-07T12:36:03.309Z,976.3
2018-03-07T12:37:04.712Z,976.2
2018-03-07T12:38:06.142Z,976.2
2018-03-07T12:39:07.548Z,976.3
2018-03-07T12:40:08.970Z,976.3
2018-03-07T12:41:10.397Z,975.9
2018-03-07T12:42:11.819Z,976.3
2018-03-07T12:43:13.232Z,975.8
2018-03-07T12:44:14.643Z,976.3
2018-03-07T12:45:16.082Z,975.8
2018-03-07T12:46:17.489Z,975.8
2018-03-07T12:47:18.915Z,976.1
2018-03-07T12:48:20.331Z,975.8
2018-03-07T12:49:21.744Z,976.2
2018-03-07T12:50:23.156Z,975.8
2018-03-07T12:51:24.571Z,975.7
2018-03-07T12:52:25.973Z,975.7
2018-03-07T12:53:27.391Z,975.6
2018-03-07T12:54:28.805Z,975.7
2018-03-07T12:55:30.287Z,975.7
2018-03-07T12:56:31.742Z,975.7
2018-03-07T12:57:33.184Z,976.1
2018-03-07T12:58:34.658Z,975.8
2018-03-07T12:59:36.065Z,976.2
2018-03-07T13:00:37.518Z,975.9
2018-03-07T13:01:38.993Z,976.4
2018-03-07T13:02:40.474Z,976.0
2018-03-07T13:03:41.935Z,975.9
2018-03-07T13:04:43.401Z,975.9
2018-03-07T13:05:44.845Z,975.8
2018-03-07T13:06:46.346Z,975.8
2018-03-07T13:07:47.843Z,975.8
2018-03-07T13:08:49.290Z,975.8
2018-03-07T13:09:50.741Z,975.8
2018-03-07T13:10:52.176Z,976.0